Time;durP1;ratioP1;P1;durP2;ratioP2;P2;SDS_P1;SDS_P2;PMS_P1;PMS_P2;Temp;Humidity;BMP_temperature;BMP_pressure;BME280_temperature;BME280_humidity;BME280_pressure;Samples;Min_cycle;Max_cycle;Signal;HPM_P1;HPM_P2
2023/01/02 00:01:34;;;;;;;;;;;10.40;99.90;;;;;;4945167;28;212550;-72
2023/01/02 00:04:00;;;;;;;;;;;10.40;99.90;;;;;;5013642;28;19925;-72
2023/01/02 00:06:26;;;;;;;;;;;10.40;99.90;;;;;;4961690;28;210444;-73
2023/01/02 00:08:51;;;;;;;;;;;10.40;99.90;;;;;;5030529;28;19925;-73
2023/01/02 00:11:17;;;;;;;;;;;10.40;99.90;;;;;;4975005;28;212224;-72
2023/01/02 00:13:43;;;;;;;;;;;10.40;99.90;;;;;;5011851;28;19936;-72
2023/01/02 00:16:09;;;;;;;;;;;10.40;99.90;;;;;;4952588;28;107524;-72
2023/01/02 00:18:35;;;;;;;;;;;10.40;99.90;;;;;;5030615;28;19921;-72
2023/01/02 00:21:02;;;;;;;;;;;10.40;99.90;;;;;;4965380;28;94054;-72
2023/01/02 00:23:28;;;;;;;;;;;10.40;99.90;;;;;;5001240;28;19936;-71
2023/01/02 00:25:54;;;;;;;;;;;10.40;99.90;;;;;;4973705;28;208409;-72
2023/01/02 00:28:20;;;;;;;;;;;10.40;99.90;;;;;;5023993;28;19932;-72
2023/01/02 00:30:46;;;;;;;;;;;10.40;99.90;;;;;;4965023;28;215333;-71
2023/01/02 00:33:12;;;;;;;;;;;10.40;99.90;;;;;;5016458;28;20664;-71
2023/01/02 00:35:38;;;;;;;;;;;10.50;99.90;;;;;;4984025;28;210155;-72
2023/01/02 00:38:04;;;;;;;;;;;10.50;99.90;;;;;;5017618;28;19948;-73
2023/01/02 00:40:30;;;;;;;;;;;10.50;99.90;;;;;;4946577;28;219947;-72
2023/01/02 00:42:56;;;;;;;;;;;10.40;99.90;;;;;;5003881;28;20032;-71
2023/01/02 00:45:21;;;;;;;;;;;10.40;99.90;;;;;;5002945;28;208880;-71
2023/01/02 00:47:47;;;;;;;;;;;10.50;99.90;;;;;;4997507;28;39065;-73
2023/01/02 00:50:13;;;;;;;;;;;10.50;99.90;;;;;;5031518;28;19925;-74
2023/01/02 00:52:39;;;;;;;;;;;10.40;99.90;;;;;;4952606;28;206099;-74
2023/01/02 00:55:05;;;;;;;;;;;10.50;99.90;;;;;;5006459;28;19936;-75
2023/01/02 00:57:31;;;;;;;;;;;10.50;99.90;;;;;;4958539;28;147059;-74
2023/01/02 00:59:57;;;;;;;;;;;10.50;99.90;;;;;;5005045;28;19941;-73
2023/01/02 01:02:23;;;;;;;;;;;10.50;99.90;;;;;;4940194;28;223257;-73
2023/01/02 01:04:49;;;;;;;;;;;10.50;99.90;;;;;;5006007;28;19935;-74
2023/01/02 01:07:15;;;;;;;;;;;10.60;99.90;;;;;;4963664;28;209454;-75
2023/01/02 01:09:41;;;;;;;;;;;10.60;99.90;;;;;;5029193;28;19925;-74
2023/01/02 01:12:06;;;;;;;;;;;10.60;99.90;;;;;;4956640;28;211328;-75
2023/01/02 01:14:32;;;;;;;;;;;10.60;99.90;;;;;;5007661;28;19921;-74
2023/01/02 01:16:59;;;;;;;;;;;10.60;99.90;;;;;;4972577;28;208224;-74
2023/01/02 01:19:31;;;;;;;;;;;10.60;99.90;;;;;;5010599;28;19932;-73
2023/01/02 01:21:57;;;;;;;;;;;10.60;99.90;;;;;;4969639;28;206120;-75
2023/01/02 01:24:23;;;;;;;;;;;10.60;99.90;;;;;;5024639;28;19932;-74
2023/01/02 01:26:49;;;;;;;;;;;10.60;99.90;;;;;;4947221;28;207128;-76
2023/01/02 01:29:15;;;;;;;;;;;10.60;99.90;;;;;;5025020;28;19925;-76
2023/01/02 01:31:41;;;;;;;;;;;10.70;99.90;;;;;;4965954;28;209248;-76
2023/01/02 01:34:09;;;;;;;;;;;10.70;99.90;;;;;;5009346;28;19929;-75
2023/01/02 01:36:35;;;;;;;;;;;10.60;99.90;;;;;;4945574;28;107117;-76
2023/01/02 01:39:01;;;;;;;;;;;10.70;99.90;;;;;;4977031;28;20287;-76
2023/01/02 01:41:27;;;;;;;;;;;10.70;99.90;;;;;;4960031;28;209947;-77
2023/01/02 01:43:55;;;;;;;;;;;10.70;99.90;;;;;;5012225;28;19928;-75
2023/01/02 01:46:33;;;;;;;;;;;10.70;99.90;;;;;;4965112;28;207417;-74
2023/01/02 01:49:14;;;;;;;;;;;10.70;99.90;;;;;;5010776;28;19932;-76
2023/01/02 01:51:51;;;;;;;;;;;10.80;99.90;;;;;;4969947;28;214643;-74
2023/01/02 01:54:20;;;;;;;;;;;10.80;99.90;;;;;;5020791;28;19925;-73
2023/01/02 01:56:47;;;;;;;;;;;10.80;99.90;;;;;;4956948;28;228107;-74
2023/01/02 01:59:14;;;;;;;;;;;10.80;99.90;;;;;;5021589;28;19948;-75
2023/01/02 02:01:40;;;;;;;;;;;10.80;99.90;;;;;;4944534;28;206598;-74
2023/01/02 02:04:07;;;;;;;;;;;10.80;99.90;;;;;;5022214;28;19937;-75
2023/01/02 02:06:34;;;;;;;;;;;10.80;99.90;;;;;;4969918;28;213020;-76
2023/01/02 02:09:02;;;;;;;;;;;10.90;99.90;;;;;;5008794;28;19925;-77
2023/01/02 02:11:29;;;;;;;;;;;10.90;99.90;;;;;;4944635;28;205798;-75
2023/01/02 02:13:59;;;;;;;;;;;10.90;99.90;;;;;;4996304;28;20310;-74
2023/01/02 02:16:34;;;;;;;;;;;10.90;99.90;;;;;;4963695;28;75850;-75
2023/01/02 02:19:01;;;;;;;;;;;10.90;99.90;;;;;;5003628;28;20215;-75
2023/01/02 02:21:36;;;;;;;;;;;10.90;99.90;;;;;;4946661;28;220888;-75
2023/01/02 02:24:05;;;;;;;;;;;10.90;99.90;;;;;;5005765;28;19932;-75
2023/01/02 02:26:50;;;;;;;;;;;10.90;99.90;;;;;;4958678;28;219020;-74
2023/01/02 02:29:16;;;;;;;;;;;10.90;99.90;;;;;;5005197;28;20400;-74
2023/01/02 02:31:49;;;;;;;;;;;10.90;99.90;;;;;;4947383;28;185256;-74
2023/01/02 02:34:37;;;;;;;;;;;10.90;99.90;;;;;;5013219;28;20322;-75
2023/01/02 02:37:13;;;;;;;;;;;10.90;99.90;;;;;;4971399;28;127520;-78
2023/01/02 02:39:58;;;;;;;;;;;10.90;99.90;;;;;;4996539;28;20094;-74
2023/01/02 02:42:30;;;;;;;;;;;11.00;99.90;;;;;;4938014;28;153806;-75
2023/01/02 02:45:00;;;;;;;;;;;10.90;99.90;;;;;;5023755;28;20636;-75
2023/01/02 02:47:29;;;;;;;;;;;11.00;99.90;;;;;;4953677;28;213511;-76
2023/01/02 02:50:07;;;;;;;;;;;11.00;99.90;;;;;;5005815;28;20930;-74
2023/01/02 02:52:43;;;;;;;;;;;11.00;99.90;;;;;;4945896;28;59932;-75
2023/01/02 02:55:13;;;;;;;;;;;11.00;99.90;;;;;;5006353;28;19936;-74
2023/01/02 02:57:41;;;;;;;;;;;11.00;99.90;;;;;;4926311;28;137407;-75
2023/01/02 03:00:08;;;;;;;;;;;11.00;99.90;;;;;;5006865;28;20424;-73
2023/01/02 03:02:35;;;;;;;;;;;11.00;99.90;;;;;;4941317;28;207779;-74
2023/01/02 03:05:04;;;;;;;;;;;11.00;99.90;;;;;;5006360;28;19925;-74
2023/01/02 03:07:39;;;;;;;;;;;11.00;99.90;;;;;;4945583;28;213978;-76
2023/01/02 03:10:09;;;;;;;;;;;11.00;99.90;;;;;;5007179;28;19932;-78
2023/01/02 03:13:14;;;;;;;;;;;11.00;99.90;;;;;;4948169;28;208643;-75
2023/01/02 03:15:40;;;;;;;;;;;11.00;99.90;;;;;;4904562;28;212124;-75
2023/01/02 03:18:06;;;;;;;;;;;11.00;99.90;;;;;;4978247;28;19933;-77
2023/01/02 03:20:36;;;;;;;;;;;11.00;99.90;;;;;;4936055;28;59776;-76
2023/01/02 03:23:04;;;;;;;;;;;11.00;99.90;;;;;;4952407;28;19928;-75
2023/01/02 03:25:31;;;;;;;;;;;11.00;99.90;;;;;;4928701;28;207028;-77
2023/01/02 03:27:59;;;;;;;;;;;11.00;99.90;;;;;;4937374;28;19918;-76
2023/01/02 03:30:26;;;;;;;;;;;11.00;99.90;;;;;;4919035;28;95274;-79
2023/01/02 03:32:57;;;;;;;;;;;11.10;99.90;;;;;;4950659;28;20021;-74
2023/01/02 03:35:26;;;;;;;;;;;11.10;99.90;;;;;;4938021;28;195926;-75
2023/01/02 03:37:54;;;;;;;;;;;11.10;99.90;;;;;;4920221;28;205558;-75
2023/01/02 03:40:27;;;;;;;;;;;11.10;99.90;;;;;;4941539;28;206910;-75
2023/01/02 03:43:04;;;;;;;;;;;11.10;99.90;;;;;;4939103;28;19929;-75
2023/01/02 03:45:32;;;;;;;;;;;11.10;99.90;;;;;;4935370;28;143403;-76
2023/01/02 03:48:01;;;;;;;;;;;11.10;99.90;;;;;;5002814;28;19979;-75
2023/01/02 03:50:32;;;;;;;;;;;11.10;99.90;;;;;;4948930;28;207470;-78
2023/01/02 03:52:58;;;;;;;;;;;11.20;99.90;;;;;;5004693;28;19929;-78
2023/01/02 03:55:24;;;;;;;;;;;11.10;99.90;;;;;;4972480;28;220409;-71
2023/01/02 03:58:07;;;;;;;;;;;11.20;99.90;;;;;;4975562;28;19921;-76
2023/01/02 04:00:40;;;;;;;;;;;11.20;99.90;;;;;;4964598;28;208169;-74
2023/01/02 04:03:11;;;;;;;;;;;11.20;99.90;;;;;;4994540;28;19917;-76
2023/01/02 04:05:40;;;;;;;;;;;11.20;99.90;;;;;;4969798;28;208171;-74
2023/01/02 04:08:12;;;;;;;;;;;11.20;99.90;;;;;;5024207;28;19940;-74
2023/01/02 04:10:39;;;;;;;;;;;11.20;99.90;;;;;;4975776;28;204858;-75
2023/01/02 04:13:11;;;;;;;;;;;11.20;99.90;;;;;;5021879;28;19933;-73
2023/01/02 04:15:38;;;;;;;;;;;11.20;99.90;;;;;;4953751;28;209539;-73
2023/01/02 04:18:12;;;;;;;;;;;11.20;99.90;;;;;;5010881;28;19921;-74
2023/01/02 04:20:40;;;;;;;;;;;11.20;99.90;;;;;;4959415;28;212101;-73
2023/01/02 04:23:09;;;;;;;;;;;11.20;99.90;;;;;;4980805;28;19925;-74
2023/01/02 04:25:48;;;;;;;;;;;11.30;99.90;;;;;;4963459;28;210537;-73
2023/01/02 04:28:17;;;;;;;;;;;11.30;99.90;;;;;;5008655;28;19928;-75
2023/01/02 04:30:46;;;;;;;;;;;11.20;99.90;;;;;;4972538;28;209929;-75
2023/01/02 04:33:13;;;;;;;;;;;11.20;99.90;;;;;;5010179;28;20008;-74
2023/01/02 04:35:39;;;;;;;;;;;11.20;99.90;;;;;;4957278;28;208550;-75
2023/01/02 04:38:07;;;;;;;;;;;11.30;99.90;;;;;;5009295;28;19952;-75
2023/01/02 04:40:36;;;;;;;;;;;11.20;99.90;;;;;;4970625;28;203428;-75
2023/01/02 04:43:19;;;;;;;;;;;11.20;99.90;;;;;;5011362;28;20663;-74
2023/01/02 04:45:46;;;;;;;;;;;11.20;99.90;;;;;;4964098;28;209092;-73
2023/01/02 04:48:12;;;;;;;;;;;11.20;99.90;;;;;;5013654;28;19925;-74
2023/01/02 04:50:38;;;;;;;;;;;11.30;99.90;;;;;;4966931;28;209902;-74
2023/01/02 04:53:04;;;;;;;;;;;11.20;99.90;;;;;;5009695;28;20317;-75
2023/01/02 04:55:30;;;;;;;;;;;11.20;99.90;;;;;;4965494;28;209552;-74
2023/01/02 04:57:56;;;;;;;;;;;11.30;99.90;;;;;;5023173;28;20016;-74
2023/01/02 05:00:22;;;;;;;;;;;11.20;99.90;;;;;;4995487;28;207859;-77
2023/01/02 05:02:48;;;;;;;;;;;11.30;99.90;;;;;;4986033;28;19929;-72
2023/01/02 05:05:14;;;;;;;;;;;11.20;99.90;;;;;;5017908;28;206871;-73
2023/01/02 05:07:40;;;;;;;;;;;11.20;99.90;;;;;;4951879;28;93065;-73
2023/01/02 05:10:06;;;;;;;;;;;11.30;99.90;;;;;;5024796;28;19929;-73
2023/01/02 05:12:33;;;;;;;;;;;11.30;99.90;;;;;;4962624;28;207275;-73
2023/01/02 05:14:59;;;;;;;;;;;11.30;99.90;;;;;;5004939;28;19928;-72
2023/01/02 05:17:25;;;;;;;;;;;11.30;99.90;;;;;;4953154;28;205887;-72
2023/01/02 05:19:51;;;;;;;;;;;11.30;99.90;;;;;;5003467;28;19925;-71
2023/01/02 05:25:02;;;;;;;;;;;11.30;99.90;;;;;;5029917;28;19929;-72
2023/01/02 05:27:27;;;;;;;;;;;11.30;99.90;;;;;;4929317;28;206733;-73
2023/01/02 05:29:53;;;;;;;;;;;11.40;99.90;;;;;;5022585;28;19932;-73
2023/01/02 05:32:19;;;;;;;;;;;11.40;99.90;;;;;;4959864;28;58641;-72
2023/01/02 05:34:45;;;;;;;;;;;11.40;99.90;;;;;;5012381;28;19960;-73
2023/01/02 05:37:11;;;;;;;;;;;11.40;99.90;;;;;;4850590;28;3040971;-72
2023/01/02 05:39:37;;;;;;;;;;;11.40;99.90;;;;;;5003106;28;19931;-72
2023/01/02 05:42:03;;;;;;;;;;;11.40;99.90;;;;;;4940697;28;85230;-71
2023/01/02 05:44:29;;;;;;;;;;;11.40;99.90;;;;;;5018072;28;20417;-73
2023/01/02 05:46:55;;;;;;;;;;;11.50;99.90;;;;;;4908792;28;207383;-73
2023/01/02 05:49:21;;;;;;;;;;;11.50;99.90;;;;;;4996252;28;20378;-73
2023/01/02 05:51:46;;;;;;;;;;;11.50;99.90;;;;;;4942900;28;59304;-72
2023/01/02 05:54:12;;;;;;;;;;;11.50;99.90;;;;;;4981344;28;19947;-73
2023/01/02 05:56:38;;;;;;;;;;;11.50;99.90;;;;;;4966844;28;208072;-72
2023/01/02 05:59:05;;;;;;;;;;;11.50;99.90;;;;;;5004735;28;19921;-72
2023/01/02 06:01:31;;;;;;;;;;;11.50;99.90;;;;;;4939632;28;203324;-72
2023/01/02 06:03:58;;;;;;;;;;;11.50;99.90;;;;;;5003881;28;19929;-71
2023/01/02 06:06:35;;;;;;;;;;;11.50;99.90;;;;;;4954009;28;213374;-72
2023/01/02 06:09:01;;;;;;;;;;;11.50;99.90;;;;;;4996369;28;19928;-71
2023/01/02 06:11:27;;;;;;;;;;;11.50;99.90;;;;;;4956095;28;207693;-71
2023/01/02 06:13:53;;;;;;;;;;;11.50;99.90;;;;;;5019647;28;19952;-72
2023/01/02 06:16:20;;;;;;;;;;;11.50;99.90;;;;;;4963999;28;212217;-72
2023/01/02 06:18:46;;;;;;;;;;;11.50;99.90;;;;;;5021768;28;19921;-72
2023/01/02 06:21:13;;;;;;;;;;;11.50;99.90;;;;;;4966715;28;214424;-72
2023/01/02 06:23:39;;;;;;;;;;;11.60;99.90;;;;;;5024918;28;19936;-72
2023/01/02 06:26:06;;;;;;;;;;;11.60;99.90;;;;;;4963574;28;220763;-71
2023/01/02 06:28:32;;;;;;;;;;;11.60;99.90;;;;;;5023895;28;19929;-72
2023/01/02 06:31:02;;;;;;;;;;;11.60;99.90;;;;;;4953673;28;76954;-73
2023/01/02 06:33:29;;;;;;;;;;;11.60;99.90;;;;;;5015269;28;19937;-73
2023/01/02 06:35:55;;;;;;;;;;;11.60;99.90;;;;;;4969228;28;206786;-73
2023/01/02 06:38:21;;;;;;;;;;;11.60;99.90;;;;;;5017151;28;19921;-72
2023/01/02 06:40:54;;;;;;;;;;;11.60;99.90;;;;;;4966654;28;207570;-71
2023/01/02 06:43:20;;;;;;;;;;;11.60;99.90;;;;;;4992887;28;19934;-71
2023/01/02 06:45:46;;;;;;;;;;;11.60;99.90;;;;;;4963418;28;248852;-69
2023/01/02 06:48:12;;;;;;;;;;;11.60;99.90;;;;;;5015726;28;19928;-69
2023/01/02 06:50:38;;;;;;;;;;;11.50;99.90;;;;;;4956585;28;218733;-70
2023/01/02 06:53:04;;;;;;;;;;;11.50;99.90;;;;;;5008171;28;20284;-71
2023/01/02 06:55:29;;;;;;;;;;;11.40;99.90;;;;;;4965236;28;209374;-71
2023/01/02 06:57:56;;;;;;;;;;;11.40;99.90;;;;;;4990177;28;20283;-71
2023/01/02 07:00:21;;;;;;;;;;;11.40;99.90;;;;;;4992558;28;206570;-69
2023/01/02 07:02:47;;;;;;;;;;;11.40;99.90;;;;;;4978819;28;19925;-71
2023/01/02 07:05:13;;;;;;;;;;;11.30;99.90;;;;;;5020300;28;19971;-71
2023/01/02 07:07:39;;;;;;;;;;;11.30;99.90;;;;;;4936830;28;234170;-71
2023/01/02 07:10:05;;;;;;;;;;;11.10;99.90;;;;;;5020328;28;19929;-71
2023/01/02 07:12:35;;;;;;;;;;;11.00;99.90;;;;;;4941576;28;234921;-70
2023/01/02 07:15:05;;;;;;;;;;;10.90;99.90;;;;;;5022526;28;20319;-72
2023/01/02 07:17:31;;;;;;;;;;;10.80;99.90;;;;;;4927396;28;209355;-70
2023/01/02 07:19:57;;;;;;;;;;;10.60;99.90;;;;;;5023801;28;20314;-71
2023/01/02 07:22:24;;;;;;;;;;;10.60;99.90;;;;;;4931799;28;208126;-72
2023/01/02 07:24:50;;;;;;;;;;;10.60;99.90;;;;;;5019033;28;19951;-73
2023/01/02 07:27:15;;;;;;;;;;;10.50;99.90;;;;;;4947940;28;210712;-72
2023/01/02 07:29:41;;;;;;;;;;;10.40;99.90;;;;;;5022225;28;19925;-72
2023/01/02 07:32:07;;;;;;;;;;;10.40;99.90;;;;;;4949463;28;102419;-73
2023/01/02 07:34:33;;;;;;;;;;;10.40;99.90;;;;;;5019625;28;19936;-72
2023/01/02 07:36:59;;;;;;;;;;;10.30;99.90;;;;;;4952349;28;205264;-72
2023/01/02 07:39:26;;;;;;;;;;;10.30;99.90;;;;;;5023542;28;19964;-72
2023/01/02 07:41:51;;;;;;;;;;;10.20;99.90;;;;;;4951200;28;203546;-72
2023/01/02 07:44:17;;;;;;;;;;;10.10;99.90;;;;;;4989291;28;19925;-72
2023/01/02 07:46:43;;;;;;;;;;;10.00;99.90;;;;;;4969074;28;208484;-72
2023/01/02 07:49:10;;;;;;;;;;;9.90;99.90;;;;;;5046103;28;19960;-72
2023/01/02 07:51:36;;;;;;;;;;;9.80;99.90;;;;;;4967706;28;206118;-71
2023/01/02 07:54:02;;;;;;;;;;;9.70;99.90;;;;;;5023005;28;20483;-72
2023/01/02 07:56:28;;;;;;;;;;;9.70;99.90;;;;;;4974703;28;210136;-71
2023/01/02 07:58:54;;;;;;;;;;;9.60;99.90;;;;;;5021386;28;19943;-70
2023/01/02 08:01:20;;;;;;;;;;;9.50;99.90;;;;;;4963966;28;207308;-70
2023/01/02 08:03:46;;;;;;;;;;;9.30;99.90;;;;;;5029264;28;20492;-70
2023/01/02 08:06:13;;;;;;;;;;;9.20;99.90;;;;;;4963300;28;207423;-72
2023/01/02 08:08:39;;;;;;;;;;;9.10;99.90;;;;;;5024266;28;20410;-70
2023/01/02 08:11:06;;;;;;;;;;;9.00;99.90;;;;;;4966967;28;222793;-71
2023/01/02 08:13:32;;;;;;;;;;;9.00;99.90;;;;;;5024694;28;20390;-71
2023/01/02 08:16:02;;;;;;;;;;;8.90;99.90;;;;;;4960236;28;208915;-71
2023/01/02 08:18:28;;;;;;;;;;;8.90;99.90;;;;;;5014816;28;19925;-71
2023/01/02 08:20:54;;;;;;;;;;;8.90;99.90;;;;;;4970476;28;206844;-71
2023/01/02 08:23:20;;;;;;;;;;;8.80;99.90;;;;;;5006684;28;19928;-69
2023/01/02 08:25:46;;;;;;;;;;;8.70;99.90;;;;;;4967563;28;273542;-71
2023/01/02 08:28:12;;;;;;;;;;;8.60;99.90;;;;;;5007538;28;20408;-71
2023/01/02 08:30:39;;;;;;;;;;;8.60;99.90;;;;;;4960608;28;102589;-71
2023/01/02 08:33:04;;;;;;;;;;;8.60;99.90;;;;;;4981240;28;19917;-70
2023/01/02 08:35:30;;;;;;;;;;;8.60;99.90;;;;;;4962879;28;206541;-71
2023/01/02 08:37:56;;;;;;;;;;;8.60;99.90;;;;;;5018598;28;19940;-72
2023/01/02 08:40:22;;;;;;;;;;;8.60;99.90;;;;;;4971069;28;207264;-70
2023/01/02 08:42:49;;;;;;;;;;;8.60;99.90;;;;;;4969864;28;150572;-71
2023/01/02 08:45:15;;;;;;;;;;;8.60;99.90;;;;;;5009709;28;204414;-71
2023/01/02 08:47:41;;;;;;;;;;;8.50;99.90;;;;;;4932404;28;136140;-71
2023/01/02 08:50:07;;;;;;;;;;;8.50;99.90;;;;;;5020810;28;20013;-71
2023/01/02 08:52:33;;;;;;;;;;;8.50;99.90;;;;;;4939944;28;122133;-72
2023/01/02 08:55:02;;;;;;;;;;;8.50;99.90;;;;;;5019806;28;19928;-71
2023/01/02 08:57:28;;;;;;;;;;;8.50;99.90;;;;;;4946717;28;68116;-71
2023/01/02 08:59:54;;;;;;;;;;;8.50;99.90;;;;;;5020194;28;19929;-71
2023/01/02 09:02:20;;;;;;;;;;;8.50;99.90;;;;;;4955058;28;204023;-71
2023/01/02 09:04:46;;;;;;;;;;;8.50;99.90;;;;;;5018784;28;19956;-71
2023/01/02 09:07:12;;;;;;;;;;;8.50;99.90;;;;;;4935514;28;132529;-69
2023/01/02 09:09:38;;;;;;;;;;;8.50;99.90;;;;;;5013316;28;20816;-71
2023/01/02 09:12:04;;;;;;;;;;;8.50;99.90;;;;;;4921459;28;190274;-70
2023/01/02 09:14:30;;;;;;;;;;;8.50;99.90;;;;;;4999083;28;19982;-70
2023/01/02 09:16:59;;;;;;;;;;;8.50;99.90;;;;;;4958655;28;100912;-69
2023/01/02 09:19:25;;;;;;;;;;;8.40;99.90;;;;;;5017733;28;19921;-71
2023/01/02 09:21:51;;;;;;;;;;;8.40;99.90;;;;;;4956438;28;211532;-71
2023/01/02 09:24:17;;;;;;;;;;;8.50;99.90;;;;;;4999216;28;20696;-71
2023/01/02 09:26:43;;;;;;;;;;;8.40;99.90;;;;;;4946054;28;101043;-70
2023/01/02 09:29:10;;;;;;;;;;;8.50;99.90;;;;;;4992728;28;19929;-71
2023/01/02 09:31:36;;;;;;;;;;;8.50;99.90;;;;;;4955010;28;209402;-71
2023/01/02 09:34:02;;;;;;;;;;;8.50;99.90;;;;;;5009908;28;19929;-70
2023/01/02 09:36:28;;;;;;;;;;;8.40;99.90;;;;;;4960958;28;20680;-69
2023/01/02 09:38:55;;;;;;;;;;;8.50;99.90;;;;;;5016100;28;20345;-70
2023/01/02 09:41:25;;;;;;;;;;;8.50;99.90;;;;;;4959020;28;207365;-69
2023/01/02 09:43:54;;;;;;;;;;;8.50;99.90;;;;;;4994563;28;19928;-70
2023/01/02 09:46:25;;;;;;;;;;;8.50;99.90;;;;;;4937030;28;216811;-69
2023/01/02 09:48:51;;;;;;;;;;;8.50;99.90;;;;;;5002530;28;19921;-69
2023/01/02 09:51:17;;;;;;;;;;;8.60;99.90;;;;;;4944671;28;205460;-69
2023/01/02 09:53:43;;;;;;;;;;;8.60;99.90;;;;;;5010380;28;19925;-69
2023/01/02 09:56:14;;;;;;;;;;;8.50;99.90;;;;;;4934282;28;206743;-70
2023/01/02 09:59:06;;;;;;;;;;;8.50;99.90;;;;;;5003147;28;20275;-69
2023/01/02 10:01:34;;;;;;;;;;;8.60;99.90;;;;;;4932008;28;175363;-70
2023/01/02 10:04:13;;;;;;;;;;;8.60;99.90;;;;;;4988014;28;19929;-70
2023/01/02 10:06:46;;;;;;;;;;;8.60;99.90;;;;;;4947913;28;211257;-69
2023/01/02 10:09:24;;;;;;;;;;;8.70;99.90;;;;;;5008676;28;19936;-70
2023/01/02 10:11:53;;;;;;;;;;;8.60;99.90;;;;;;4951245;28;238811;-68
2023/01/02 10:14:24;;;;;;;;;;;8.60;99.90;;;;;;5010661;28;19925;-69
2023/01/02 10:16:53;;;;;;;;;;;8.60;99.90;;;;;;4953062;28;206591;-69
2023/01/02 10:19:21;;;;;;;;;;;8.60;99.90;;;;;;4996109;28;20407;-69
2023/01/02 10:21:48;;;;;;;;;;;8.60;99.90;;;;;;4951180;28;207236;-69
2023/01/02 10:24:29;;;;;;;;;;;8.60;99.90;;;;;;5012700;28;19926;-70
2023/01/02 10:26:56;;;;;;;;;;;8.70;99.90;;;;;;4947714;28;190853;-70
2023/01/02 10:29:21;;;;;;;;;;;8.60;99.90;;;;;;5015519;28;19928;-71
2023/01/02 10:31:51;;;;;;;;;;;8.60;99.90;;;;;;4946202;28;206202;-69
2023/01/02 10:34:19;;;;;;;;;;;8.60;99.90;;;;;;4991776;28;19930;-70
2023/01/02 10:36:45;;;;;;;;;;;8.60;99.90;;;;;;4949004;28;122605;-69
2023/01/02 10:39:21;;;;;;;;;;;8.60;99.90;;;;;;5003732;28;20322;-71
2023/01/02 10:41:49;;;;;;;;;;;8.60;99.90;;;;;;4958343;28;221615;-70
2023/01/02 10:44:21;;;;;;;;;;;8.60;99.90;;;;;;5001219;28;20476;-70
2023/01/02 10:46:46;;;;;;;;;;;8.60;99.90;;;;;;4937788;28;208441;-71
2023/01/02 10:49:14;;;;;;;;;;;8.60;99.90;;;;;;5015814;28;19929;-70
2023/01/02 10:51:58;;;;;;;;;;;8.60;99.90;;;;;;4941025;28;209091;-71
2023/01/02 10:54:24;;;;;;;;;;;8.60;99.90;;;;;;5016277;28;19944;-70
2023/01/02 10:56:53;;;;;;;;;;;8.70;99.90;;;;;;4944401;28;190055;-70
2023/01/02 10:59:21;;;;;;;;;;;8.70;99.90;;;;;;5019964;28;19937;-69
2023/01/02 11:01:51;;;;;;;;;;;8.70;99.90;;;;;;4935184;28;207520;-70
2023/01/02 11:04:24;;;;;;;;;;;8.80;99.90;;;;;;5007033;28;19936;-69
2023/01/02 11:06:52;;;;;;;;;;;8.80;99.90;;;;;;4951364;28;29464;-70
2023/01/02 11:09:20;;;;;;;;;;;8.80;99.90;;;;;;5013829;28;19932;-70
2023/01/02 11:11:50;;;;;;;;;;;8.80;99.90;;;;;;4961869;28;70646;-69
2023/01/02 11:14:19;;;;;;;;;;;8.90;99.90;;;;;;5002235;28;19936;-69
2023/01/02 11:16:45;;;;;;;;;;;8.90;99.90;;;;;;4951951;28;207691;-70
2023/01/02 11:19:21;;;;;;;;;;;8.90;99.90;;;;;;5013693;28;19936;-70
2023/01/02 11:21:48;;;;;;;;;;;9.00;99.90;;;;;;4962053;28;207681;-70
2023/01/02 11:24:18;;;;;;;;;;;9.10;99.90;;;;;;5018520;28;20380;-70
2023/01/02 11:26:46;;;;;;;;;;;9.20;99.90;;;;;;4939256;28;101384;-71
2023/01/02 11:29:15;;;;;;;;;;;9.20;99.90;;;;;;5011459;28;20630;-70
2023/01/02 11:31:42;;;;;;;;;;;9.20;99.90;;;;;;4965512;28;210661;-69
2023/01/02 11:34:16;;;;;;;;;;;9.20;99.90;;;;;;5021401;28;19924;-70
2023/01/02 11:36:42;;;;;;;;;;;9.10;99.90;;;;;;4959725;28;206945;-70
2023/01/02 11:39:21;;;;;;;;;;;9.10;99.90;;;;;;5003540;28;19940;-69
2023/01/02 11:44:50;;;;;;;;;;;9.10;99.90;;;;;;5002714;28;19925;-70
2023/01/02 11:47:19;;;;;;;;;;;9.10;99.90;;;;;;4116782;28;10000073;-69
2023/01/02 11:49:47;;;;;;;;;;;9.20;99.90;;;;;;5035177;28;19973;-70
2023/01/02 11:52:18;;;;;;;;;;;9.10;99.90;;;;;;4950900;28;207052;-70
2023/01/02 11:54:48;;;;;;;;;;;9.10;99.90;;;;;;5029695;28;20523;-70
2023/01/02 11:57:40;;;;;;;;;;;9.20;99.90;;;;;;4944547;28;207747;-70
2023/01/02 12:00:14;;;;;;;;;;;9.10;99.90;;;;;;5020515;28;19929;-69
2023/01/02 12:02:42;;;;;;;;;;;9.20;99.90;;;;;;4959248;28;37689;-70
2023/01/02 12:05:12;;;;;;;;;;;9.10;99.90;;;;;;5000004;28;19931;-68
2023/01/02 12:07:41;;;;;;;;;;;9.10;99.90;;;;;;4958057;28;84533;-69
2023/01/02 12:10:16;;;;;;;;;;;9.20;99.90;;;;;;5031575;28;19928;-68
2023/01/02 12:12:51;;;;;;;;;;;9.10;99.90;;;;;;4933148;28;206955;-69
2023/01/02 12:15:37;;;;;;;;;;;9.20;99.90;;;;;;5006865;28;206851;-68
2023/01/02 12:18:18;;;;;;;;;;;9.10;99.90;;;;;;4945069;28;32590;-69
2023/01/02 12:20:50;;;;;;;;;;;9.10;99.90;;;;;;4974342;28;207754;-68
2023/01/02 12:23:16;;;;;;;;;;;9.10;99.90;;;;;;4992788;28;19932;-69
2023/01/02 12:25:52;;;;;;;;;;;9.10;99.90;;;;;;4979703;28;208212;-70
2023/01/02 12:28:37;;;;;;;;;;;9.10;99.90;;;;;;5021949;28;20362;-70
2023/01/02 12:31:15;;;;;;;;;;;9.10;99.90;;;;;;4981205;28;207599;-69
2023/01/02 12:33:59;;;;;;;;;;;9.10;99.90;;;;;;5027733;28;20578;-68
2023/01/02 12:36:25;;;;;;;;;;;9.30;99.90;;;;;;4979193;28;208053;-67
2023/01/02 12:39:04;;;;;;;;;;;9.30;99.90;;;;;;5032631;28;19967;-69
2023/01/02 12:41:56;;;;;;;;;;;9.30;99.90;;;;;;4971226;28;209314;-69
2023/01/02 12:44:40;;;;;;;;;;;9.50;99.90;;;;;;5025716;28;19959;-70
2023/01/02 12:47:21;;;;;;;;;;;9.40;99.90;;;;;;4947306;28;124957;-70
2023/01/02 12:49:50;;;;;;;;;;;9.40;99.90;;;;;;5039288;28;20663;-70
2023/01/02 12:52:23;;;;;;;;;;;9.30;99.90;;;;;;4958245;28;210266;-70
2023/01/02 12:54:56;;;;;;;;;;;9.30;99.90;;;;;;5051294;28;19929;-70
2023/01/02 12:57:21;;;;;;;;;;;9.30;99.90;;;;;;4965581;28;206682;-68
2023/01/02 12:59:56;;;;;;;;;;;9.30;99.90;;;;;;5028000;28;20393;-69
2023/01/02 13:02:27;;;;;;;;;;;9.30;99.90;;;;;;4961938;28;207168;-69
2023/01/02 13:04:56;;;;;;;;;;;9.30;99.90;;;;;;5040321;28;19931;-69
2023/01/02 13:07:37;;;;;;;;;;;9.30;99.90;;;;;;4969554;28;206597;-68
2023/01/02 13:10:04;;;;;;;;;;;9.30;99.90;;;;;;5022694;28;19944;-69
2023/01/02 13:12:31;;;;;;;;;;;9.30;99.90;;;;;;4963420;28;107200;-69
2023/01/02 13:14:59;;;;;;;;;;;9.30;99.90;;;;;;5022469;28;20294;-70
2023/01/02 13:17:30;;;;;;;;;;;9.30;99.90;;;;;;4973936;28;209119;-70
2023/01/02 13:20:01;;;;;;;;;;;9.20;99.90;;;;;;5042964;28;19932;-70
2023/01/02 13:22:36;;;;;;;;;;;9.20;99.90;;;;;;4978833;28;206483;-68
2023/01/02 13:25:02;;;;;;;;;;;9.20;99.90;;;;;;5036428;28;20322;-69
2023/01/02 13:27:28;;;;;;;;;;;9.30;99.90;;;;;;4961131;28;45135;-69
2023/01/02 13:29:54;;;;;;;;;;;9.30;99.90;;;;;;5039967;28;19932;-69
2023/01/02 13:32:27;;;;;;;;;;;9.30;99.90;;;;;;4955532;28;121350;-69
2023/01/02 13:34:53;;;;;;;;;;;9.40;99.90;;;;;;5026667;28;19929;-69
2023/01/02 13:37:23;;;;;;;;;;;9.40;99.90;;;;;;4963421;28;213777;-70
2023/01/02 13:39:52;;;;;;;;;;;9.30;99.90;;;;;;5034376;28;19927;-69
2023/01/02 13:45:13;;;;;;;;;;;9.40;99.90;;;;;;5024114;28;19925;-70
2023/01/02 13:47:45;;;;;;;;;;;9.40;99.90;;;;;;4992221;28;186888;-68
2023/01/02 13:50:14;;;;;;;;;;;9.40;99.90;;;;;;5041936;28;19932;-70
2023/01/02 13:52:52;;;;;;;;;;;9.40;99.90;;;;;;4971835;28;281304;-70
2023/01/02 13:55:20;;;;;;;;;;;9.40;99.90;;;;;;5029071;28;207668;-71
2023/01/02 13:58:05;;;;;;;;;;;9.40;99.90;;;;;;4956964;28;205953;-70
2023/01/02 14:00:35;;;;;;;;;;;9.30;99.90;;;;;;4980180;28;207146;-70
2023/01/02 14:03:19;;;;;;;;;;;9.40;99.90;;;;;;4999763;28;20397;-69
2023/01/02 14:05:57;;;;;;;;;;;9.40;99.90;;;;;;4993488;28;117609;-69
2023/01/02 14:08:25;;;;;;;;;;;9.40;99.90;;;;;;5031955;28;20294;-70
2023/01/02 14:10:53;;;;;;;;;;;9.30;99.90;;;;;;4988486;28;210214;-69
2023/01/02 14:13:37;;;;;;;;;;;9.40;99.90;;;;;;5030987;28;19932;-70
2023/01/02 14:16:15;;;;;;;;;;;9.30;99.90;;;;;;4976727;28;206768;-70
2023/01/02 14:18:40;;;;;;;;;;;9.30;99.90;;;;;;5027947;28;19935;-70
2023/01/02 14:21:06;;;;;;;;;;;9.30;99.90;;;;;;4969423;28;207282;-68
2023/01/02 14:23:38;;;;;;;;;;;9.30;99.90;;;;;;5032310;28;20417;-70
2023/01/02 14:26:04;;;;;;;;;;;9.30;99.90;;;;;;4978825;28;111285;-69
2023/01/02 14:28:35;;;;;;;;;;;9.20;99.90;;;;;;5025759;28;19982;-69
2023/01/02 14:31:02;;;;;;;;;;;9.20;99.90;;;;;;4984407;28;209216;-69
2023/01/02 14:33:32;;;;;;;;;;;9.20;99.90;;;;;;5023503;28;20012;-70
2023/01/02 14:36:05;;;;;;;;;;;9.20;99.90;;;;;;4990074;28;207761;-69